Indianapolis, Indiana
Current Conditions -  °F | °C
As of 6:54 AM on Monday 26 Jan 2015 (Local Time) from KIND Reporting Station
Broken Clouds Broken Clouds  
Wind Chill: -14°   Ceiling: 20000
Heat Index: -8°   Visibility: 10mi
Dew Point: -11°   Wind: 9mph
Humidity: 78%   Direction: 350°N
Pressure: 29.92"   Gusts: NA
Location:  39.77°N, 86.15°W
Report Text: KIND 261154Z 35008KT 10SM FEW038 BKN200 M08/M11 A2992 RMK AO2 SLP142 70004 T10781111 11067 21078 53005
Loading
Personal Weather Stations






























Interactive Weather Map New forecast layout! Learn more

10-Day Weather Forecast

Advertisements
Track Severe Weather on mobile